createdAt,value
2019-05-23T00:00:13.167Z,996.32
2019-05-23T00:01:13.261Z,996.30
2019-05-23T00:02:13.352Z,996.27
2019-05-23T00:03:13.475Z,996.35
2019-05-23T00:04:13.525Z,996.29
2019-05-23T00:05:13.616Z,996.33
2019-05-23T00:06:13.718Z,996.30
2019-05-23T00:07:13.817Z,996.30
2019-05-23T00:08:13.892Z,996.27
2019-05-23T00:09:14.019Z,996.28
2019-05-23T00:10:14.080Z,996.28
2019-05-23T00:11:14.166Z,996.25
2019-05-23T00:12:14.258Z,996.30
2019-05-23T00:13:14.353Z,996.32
2019-05-23T00:14:14.455Z,996.32
2019-05-23T00:15:14.565Z,996.31
2019-05-23T00:16:14.642Z,996.28
2019-05-23T00:17:14.747Z,996.24
2019-05-23T00:18:14.841Z,996.30
2019-05-23T00:19:14.922Z,996.31
2019-05-23T00:20:15.013Z,996.32
2019-05-23T00:21:15.104Z,996.33
2019-05-23T00:22:15.195Z,996.29
2019-05-23T00:23:15.284Z,996.30
2019-05-23T00:24:15.377Z,996.22
2019-05-23T00:25:15.473Z,996.26
2019-05-23T00:26:15.566Z,996.25
2019-05-23T00:27:15.659Z,996.24
2019-05-23T00:28:15.770Z,996.25
2019-05-23T00:29:15.866Z,996.27
2019-05-23T00:30:15.990Z,996.26
2019-05-23T00:31:16.043Z,996.25
2019-05-23T00:32:16.134Z,996.26
2019-05-23T00:33:16.225Z,996.25
2019-05-23T00:34:16.316Z,996.24
2019-05-23T00:35:16.408Z,996.24
2019-05-23T00:36:16.504Z,996.24
2019-05-23T00:37:16.587Z,996.21
2019-05-23T00:38:16.680Z,996.22
2019-05-23T00:39:16.770Z,996.21
2019-05-23T00:40:16.860Z,996.22
2019-05-23T00:41:16.948Z,996.24
2019-05-23T00:42:17.039Z,996.23
2019-05-23T00:43:17.133Z,996.23
2019-05-23T00:44:17.226Z,996.23
2019-05-23T00:45:17.313Z,996.27
2019-05-23T00:46:17.406Z,996.26
2019-05-23T00:47:17.500Z,996.32
2019-05-23T00:48:17.590Z,996.27
2019-05-23T00:49:17.681Z,996.31
2019-05-23T00:50:17.771Z,996.26
2019-05-23T00:51:17.878Z,996.27
2019-05-23T00:52:17.969Z,996.31
2019-05-23T00:53:18.058Z,996.31
2019-05-23T00:54:18.144Z,996.30
2019-05-23T00:55:18.234Z,996.29
2019-05-23T00:56:18.345Z,996.32
2019-05-23T00:57:18.417Z,996.30
2019-05-23T00:58:18.501Z,996.37
2019-05-23T00:59:26.714Z,996.33
2019-05-23T01:00:18.668Z,996.31
2019-05-23T01:01:18.758Z,996.33
2019-05-23T01:02:18.848Z,996.33
2019-05-23T01:03:18.966Z,996.34
2019-05-23T01:04:19.030Z,996.36
2019-05-23T01:05:19.120Z,996.32
2019-05-23T01:06:19.224Z,996.32
2019-05-23T01:07:19.310Z,996.35
2019-05-23T01:08:19.407Z,996.34
2019-05-23T01:09:19.499Z,996.36
2019-05-23T01:10:19.585Z,996.36
2019-05-23T01:11:19.674Z,996.33
2019-05-23T01:12:19.768Z,996.36
2019-05-23T01:13:19.859Z,996.34
2019-05-23T01:14:19.955Z,996.37
2019-05-23T01:15:20.041Z,996.31
2019-05-23T01:16:20.136Z,996.30
2019-05-23T01:17:20.224Z,996.32
2019-05-23T01:18:20.316Z,996.31
2019-05-23T01:19:20.410Z,996.32
2019-05-23T01:20:20.495Z,996.33
2019-05-23T01:21:20.588Z,996.30
2019-05-23T01:22:20.677Z,996.29
2019-05-23T01:23:20.767Z,996.29
2019-05-23T01:24:20.866Z,996.33
2019-05-23T01:25:20.948Z,996.31
2019-05-23T01:26:21.045Z,996.32
2019-05-23T01:27:21.133Z,996.30
2019-05-23T01:28:21.229Z,996.30
2019-05-23T01:29:21.318Z,996.29
2019-05-23T01:30:21.407Z,996.28
2019-05-23T01:31:21.913Z,996.25
2019-05-23T01:32:21.592Z,996.27
2019-05-23T01:33:21.684Z,996.26
2019-05-23T01:34:21.772Z,996.28
2019-05-23T01:35:21.859Z,996.26
2019-05-23T01:36:21.946Z,996.28
2019-05-23T01:37:22.041Z,996.29
2019-05-23T01:38:22.132Z,996.29
2019-05-23T01:39:22.225Z,996.29
2019-05-23T01:40:22.315Z,996.26
2019-05-23T01:41:22.406Z,996.27
2019-05-23T01:42:22.498Z,996.29
2019-05-23T01:43:22.588Z,996.28
2019-05-23T01:44:22.677Z,996.28
2019-05-23T01:45:22.776Z,996.29
2019-05-23T01:46:22.876Z,996.29
2019-05-23T01:47:22.966Z,996.26
2019-05-23T01:48:23.056Z,996.30
2019-05-23T01:49:23.147Z,996.27
2019-05-23T01:50:23.249Z,996.26
2019-05-23T01:51:23.331Z,996.30
2019-05-23T01:52:23.422Z,996.31
2019-05-23T01:53:23.516Z,996.30
2019-05-23T01:54:23.604Z,996.30
2019-05-23T01:55:23.694Z,996.30
2019-05-23T01:56:23.781Z,996.29
2019-05-23T01:57:23.874Z,996.29
2019-05-23T01:58:23.965Z,996.25
2019-05-23T01:59:24.055Z,996.28
2019-05-23T02:00:24.146Z,996.25
2019-05-23T02:01:24.232Z,996.29
2019-05-23T02:02:24.316Z,996.28
2019-05-23T02:03:24.408Z,996.27
2019-05-23T02:04:24.499Z,996.27
2019-05-23T02:05:24.596Z,996.27
2019-05-23T02:06:24.700Z,996.28
2019-05-23T02:07:24.781Z,996.30
2019-05-23T02:08:24.872Z,996.23
2019-05-23T02:09:24.962Z,996.29
2019-05-23T02:10:25.051Z,996.27
2019-05-23T02:11:25.138Z,996.28
2019-05-23T02:12:25.227Z,996.24
2019-05-23T02:13:25.321Z,996.26
2019-05-23T02:14:25.409Z,996.22
2019-05-23T02:15:25.503Z,996.26
2019-05-23T02:16:25.589Z,996.25
2019-05-23T02:17:25.680Z,996.25
2019-05-23T02:18:25.772Z,996.23
2019-05-23T02:19:25.857Z,996.20
2019-05-23T02:20:25.995Z,996.22
2019-05-23T02:21:26.038Z,996.19
2019-05-23T02:22:26.127Z,996.22
2019-05-23T02:23:26.215Z,996.22
2019-05-23T02:24:26.309Z,996.16
2019-05-23T02:25:26.400Z,996.20
2019-05-23T02:26:26.488Z,996.23
2019-05-23T02:27:26.578Z,996.24
2019-05-23T02:28:26.665Z,996.21
2019-05-23T02:29:26.767Z,996.25
2019-05-23T02:30:36.030Z,996.20
2019-05-23T02:31:26.948Z,996.20
2019-05-23T02:32:27.039Z,996.23
2019-05-23T02:33:27.135Z,996.19
2019-05-23T02:34:27.220Z,996.21
2019-05-23T02:35:27.311Z,996.19
2019-05-23T02:36:27.401Z,996.19
2019-05-23T02:37:27.494Z,996.18
2019-05-23T02:38:27.577Z,996.19
2019-05-23T02:39:27.670Z,996.22
2019-05-23T02:40:27.757Z,996.21
2019-05-23T02:41:27.846Z,996.22
2019-05-23T02:42:27.943Z,996.26
2019-05-23T02:43:28.030Z,996.24
2019-05-23T02:44:28.116Z,996.23
2019-05-23T02:45:28.204Z,996.25
2019-05-23T02:46:28.295Z,996.23
2019-05-23T02:47:28.387Z,996.28
2019-05-23T02:48:28.479Z,996.28
2019-05-23T02:49:28.570Z,996.27
2019-05-23T02:50:28.659Z,996.26
2019-05-23T02:51:28.751Z,996.25
2019-05-23T02:52:28.844Z,996.25
2019-05-23T02:53:28.936Z,996.27
2019-05-23T02:54:29.024Z,996.29
2019-05-23T02:55:29.114Z,996.32
2019-05-23T02:56:29.206Z,996.27
2019-05-23T02:57:29.302Z,996.29
2019-05-23T02:58:29.391Z,996.30
2019-05-23T02:59:29.480Z,996.29
2019-05-23T03:00:29.569Z,996.28
2019-05-23T03:01:29.678Z,996.30
2019-05-23T03:02:29.751Z,996.26
2019-05-23T03:03:29.851Z,996.27
2019-05-23T03:04:29.933Z,996.28
2019-05-23T03:05:30.028Z,996.26
2019-05-23T03:06:30.144Z,996.28
2019-05-23T03:07:30.210Z,996.24
2019-05-23T03:08:30.300Z,996.27
2019-05-23T03:09:30.392Z,996.23
2019-05-23T03:10:30.479Z,996.24
2019-05-23T03:11:30.569Z,996.24
2019-05-23T03:12:30.662Z,996.24
2019-05-23T03:13:30.757Z,996.24
2019-05-23T03:14:30.847Z,996.25
2019-05-23T03:15:30.935Z,996.21
2019-05-23T03:16:31.021Z,996.21
2019-05-23T03:17:31.113Z,996.21
2019-05-23T03:18:34.457Z,996.16
2019-05-23T03:19:31.299Z,996.20
2019-05-23T03:20:31.390Z,996.19
2019-05-23T03:21:31.482Z,996.19
2019-05-23T03:22:31.631Z,996.19
2019-05-23T03:23:31.670Z,996.20
2019-05-23T03:24:31.755Z,996.20
2019-05-23T03:25:31.852Z,996.14
2019-05-23T03:26:31.942Z,996.20
2019-05-23T03:27:32.044Z,996.16
2019-05-23T03:28:32.123Z,996.17
2019-05-23T03:29:32.215Z,996.17
2019-05-23T03:30:32.304Z,996.19
2019-05-23T03:31:33.174Z,996.21
2019-05-23T03:32:38.056Z,996.24
2019-05-23T03:33:32.596Z,996.25
2019-05-23T03:34:32.673Z,996.25
2019-05-23T03:35:32.774Z,996.19
2019-05-23T03:36:32.855Z,996.22
2019-05-23T03:37:32.945Z,996.22
2019-05-23T03:38:33.036Z,996.22
2019-05-23T03:39:33.139Z,996.25
2019-05-23T03:40:33.218Z,996.24
2019-05-23T03:41:33.325Z,996.27
2019-05-23T03:42:33.400Z,996.21
2019-05-23T03:43:33.493Z,996.24
2019-05-23T03:44:33.726Z,996.23
2019-05-23T03:45:33.682Z,996.19
2019-05-23T03:46:33.775Z,996.22
2019-05-23T03:47:33.857Z,996.21
2019-05-23T03:48:33.947Z,996.23
2019-05-23T03:49:34.038Z,996.20
2019-05-23T03:50:34.133Z,996.19
2019-05-23T03:51:34.224Z,996.21
2019-05-23T03:52:34.317Z,996.21
2019-05-23T03:53:34.415Z,996.21
2019-05-23T03:54:34.502Z,996.22
2019-05-23T03:55:34.592Z,996.24
2019-05-23T03:56:34.682Z,996.22
2019-05-23T03:57:34.779Z,996.26
2019-05-23T03:58:34.862Z,996.23
2019-05-23T03:59:34.955Z,996.25
2019-05-23T04:00:35.044Z,996.27
2019-05-23T04:01:47.182Z,996.25
2019-05-23T04:02:35.222Z,996.28
2019-05-23T04:03:39.709Z,996.29
2019-05-23T04:04:35.407Z,996.28
2019-05-23T04:05:35.500Z,996.28
2019-05-23T04:06:35.589Z,996.25
2019-05-23T04:07:35.685Z,996.26
2019-05-23T04:08:35.769Z,996.27
2019-05-23T04:09:35.862Z,996.29
2019-05-23T04:10:35.955Z,996.29
2019-05-23T04:11:36.054Z,996.26
2019-05-23T04:12:36.146Z,996.25
2019-05-23T04:13:36.241Z,996.26
2019-05-23T04:14:36.327Z,996.27
2019-05-23T04:15:36.422Z,996.27
2019-05-23T04:16:36.511Z,996.27
2019-05-23T04:17:36.603Z,996.26
2019-05-23T04:18:36.696Z,996.27
2019-05-23T04:19:36.785Z,996.22
2019-05-23T04:20:36.876Z,996.22
2019-05-23T04:21:36.973Z,996.26
2019-05-23T04:22:37.065Z,996.24
2019-05-23T04:23:37.152Z,996.26
2019-05-23T04:24:37.239Z,996.25
2019-05-23T04:25:37.339Z,996.23
2019-05-23T04:26:37.432Z,996.25
2019-05-23T04:27:37.526Z,996.26
2019-05-23T04:28:37.609Z,996.25
2019-05-23T04:29:37.703Z,996.23
2019-05-23T04:30:37.799Z,996.25
2019-05-23T04:31:37.888Z,996.27
2019-05-23T04:32:37.980Z,996.26
2019-05-23T04:33:38.073Z,996.25
2019-05-23T04:34:38.164Z,996.25
2019-05-23T04:35:38.253Z,996.24
2019-05-23T04:36:38.347Z,996.25
2019-05-23T04:37:38.439Z,996.26
2019-05-23T04:38:38.530Z,996.21
2019-05-23T04:39:38.623Z,996.20
2019-05-23T04:40:38.713Z,996.24
2019-05-23T04:41:38.805Z,996.17
2019-05-23T04:42:38.903Z,996.15
2019-05-23T04:43:38.989Z,996.17
2019-05-23T04:44:43.729Z,996.18
2019-05-23T04:45:39.175Z,996.18
2019-05-23T04:46:39.269Z,996.21
2019-05-23T04:47:39.361Z,996.19
2019-05-23T04:48:39.452Z,996.22
2019-05-23T04:49:39.541Z,996.21
2019-05-23T04:50:39.641Z,996.21
2019-05-23T04:51:39.728Z,996.21
2019-05-23T04:52:39.822Z,996.22
2019-05-23T04:53:39.910Z,996.24
2019-05-23T04:54:40.004Z,996.23
2019-05-23T04:55:40.094Z,996.25
2019-05-23T04:56:40.183Z,996.24
2019-05-23T04:57:40.274Z,996.20
2019-05-23T04:58:40.366Z,996.26
2019-05-23T04:59:40.462Z,996.20
2019-05-23T05:00:40.550Z,996.30
2019-05-23T05:01:40.711Z,996.23
2019-05-23T05:02:40.732Z,996.25
2019-05-23T05:03:40.835Z,996.23
2019-05-23T05:04:40.920Z,996.27
2019-05-23T05:05:41.092Z,996.25
2019-05-23T05:06:41.105Z,996.25
2019-05-23T05:07:41.196Z,996.30
2019-05-23T05:08:41.288Z,996.29
2019-05-23T05:09:41.385Z,996.28
2019-05-23T05:10:41.472Z,996.31
2019-05-23T05:11:41.562Z,996.32
2019-05-23T05:12:41.653Z,996.33
2019-05-23T05:13:41.751Z,996.32
2019-05-23T05:14:41.841Z,996.34
2019-05-23T05:15:41.932Z,996.38
2019-05-23T05:16:42.025Z,996.37
2019-05-23T05:17:42.120Z,996.37
2019-05-23T05:18:42.210Z,996.40
2019-05-23T05:19:42.305Z,996.36
2019-05-23T05:20:42.402Z,996.44
2019-05-23T05:21:42.491Z,996.41
2019-05-23T05:22:42.647Z,996.40
2019-05-23T05:23:42.679Z,996.42
2019-05-23T05:24:42.775Z,996.42
2019-05-23T05:25:42.868Z,996.41
2019-05-23T05:26:42.957Z,996.42
2019-05-23T05:27:43.055Z,996.41
2019-05-23T05:28:43.141Z,996.42
2019-05-23T05:29:43.226Z,996.46
2019-05-23T05:30:43.330Z,996.44
2019-05-23T05:31:43.413Z,996.46
2019-05-23T05:32:45.519Z,996.47
2019-05-23T05:33:43.594Z,996.45
2019-05-23T05:34:43.687Z,996.45
2019-05-23T05:35:43.782Z,996.44
2019-05-23T05:36:43.874Z,996.48
2019-05-23T05:37:43.963Z,996.47
2019-05-23T05:38:44.095Z,996.47
2019-05-23T05:39:44.175Z,996.46
2019-05-23T05:40:44.239Z,996.49
2019-05-23T05:41:44.332Z,996.48
2019-05-23T05:42:44.421Z,996.49
2019-05-23T05:43:44.529Z,996.50
2019-05-23T05:44:44.622Z,996.52
2019-05-23T05:45:44.716Z,996.52
2019-05-23T05:46:44.805Z,996.52
2019-05-23T05:47:44.905Z,996.52
2019-05-23T05:48:44.988Z,996.55
2019-05-23T05:49:45.090Z,996.54
2019-05-23T05:50:45.180Z,996.52
2019-05-23T05:51:45.269Z,996.53
2019-05-23T05:52:45.366Z,996.54
2019-05-23T05:53:45.456Z,996.54
2019-05-23T05:54:45.561Z,996.56
2019-05-23T05:55:45.645Z,996.57
2019-05-23T05:56:45.742Z,996.63
2019-05-23T05:57:45.833Z,996.63
2019-05-23T05:58:45.925Z,996.67
2019-05-23T05:59:46.029Z,996.65
2019-05-23T06:00:46.114Z,996.73
2019-05-23T06:01:46.205Z,996.72
2019-05-23T06:03:02.628Z,996.69
2019-05-23T06:03:46.412Z,996.68
2019-05-23T06:04:46.506Z,996.71
2019-05-23T06:05:46.607Z,996.69
2019-05-23T06:06:50.003Z,996.72
2019-05-23T06:07:46.785Z,996.73
2019-05-23T06:08:46.878Z,996.73
2019-05-23T06:09:46.983Z,996.70
2019-05-23T06:10:47.054Z,996.71
2019-05-23T06:11:47.149Z,996.69
2019-05-23T06:12:47.259Z,996.76
2019-05-23T06:13:47.334Z,996.76
2019-05-23T06:14:47.428Z,996.77
2019-05-23T06:15:47.543Z,996.79
2019-05-23T06:16:47.638Z,996.79
2019-05-23T06:17:47.742Z,996.78
2019-05-23T06:18:47.830Z,996.77
2019-05-23T06:19:48.057Z,996.77
2019-05-23T06:20:48.027Z,996.79
2019-05-23T06:21:48.114Z,996.83
2019-05-23T06:22:48.210Z,996.85
2019-05-23T06:23:48.297Z,996.89
2019-05-23T06:24:53.349Z,996.80
2019-05-23T06:25:48.495Z,996.81
2019-05-23T06:26:48.581Z,996.76
2019-05-23T06:27:48.675Z,996.79
2019-05-23T06:28:48.769Z,996.79
2019-05-23T06:29:48.863Z,996.78
2019-05-23T06:30:48.959Z,996.78
2019-05-23T06:31:49.052Z,996.74
2019-05-23T06:32:49.157Z,996.77
2019-05-23T06:33:49.250Z,996.79
2019-05-23T06:34:49.348Z,996.77
2019-05-23T06:35:49.429Z,996.75
2019-05-23T06:36:49.531Z,996.78
2019-05-23T06:37:49.626Z,996.74
2019-05-23T06:38:49.726Z,996.78
2019-05-23T06:39:49.815Z,996.76
2019-05-23T06:40:49.909Z,996.75
2019-05-23T06:41:50.003Z,996.71
2019-05-23T06:42:51.030Z,996.74
2019-05-23T06:43:50.181Z,996.73
2019-05-23T06:44:50.285Z,996.75
2019-05-23T06:45:50.370Z,996.74
2019-05-23T06:46:50.464Z,996.76
2019-05-23T06:47:50.567Z,996.74
2019-05-23T06:48:50.652Z,996.70
2019-05-23T06:49:50.755Z,996.74
2019-05-23T06:50:50.841Z,996.73
2019-05-23T06:51:50.937Z,996.72
2019-05-23T06:52:51.031Z,996.74
2019-05-23T06:53:51.128Z,996.77
2019-05-23T06:54:51.223Z,996.70
2019-05-23T06:55:51.322Z,996.74
2019-05-23T06:56:51.414Z,996.78
2019-05-23T06:57:51.506Z,996.75
2019-05-23T06:58:51.603Z,996.75
2019-05-23T06:59:51.694Z,996.74
2019-05-23T07:00:51.994Z,996.71
2019-05-23T07:01:51.878Z,996.69
2019-05-23T07:02:51.974Z,996.69
2019-05-23T07:03:52.080Z,996.70
2019-05-23T07:04:52.176Z,996.65
2019-05-23T07:05:52.270Z,996.66
2019-05-23T07:06:52.365Z,996.63
2019-05-23T07:07:52.475Z,996.65
2019-05-23T07:08:52.558Z,996.66
2019-05-23T07:09:52.650Z,996.64
2019-05-23T07:10:52.739Z,996.66
2019-05-23T07:11:52.840Z,996.66
2019-05-23T07:12:52.932Z,996.67
2019-05-23T07:13:53.027Z,996.70
2019-05-23T07:14:53.123Z,996.70
2019-05-23T07:15:53.217Z,996.64
2019-05-23T07:16:53.311Z,996.71
2019-05-23T07:17:53.406Z,996.72
2019-05-23T07:18:53.499Z,996.73
2019-05-23T07:19:53.595Z,996.75
2019-05-23T07:20:53.687Z,996.75
2019-05-23T07:21:53.786Z,996.68
2019-05-23T07:22:53.876Z,996.73
2019-05-23T07:23:53.977Z,996.71
2019-05-23T07:24:58.214Z,996.76
2019-05-23T07:25:54.157Z,996.75
2019-05-23T07:26:54.252Z,996.72
2019-05-23T07:27:54.349Z,996.74
2019-05-23T07:28:54.456Z,996.75
2019-05-23T07:29:54.543Z,996.78
2019-05-23T07:30:54.675Z,996.76
2019-05-23T07:31:54.733Z,996.78
2019-05-23T07:32:54.834Z,996.75
2019-05-23T07:34:01.565Z,996.79
2019-05-23T07:34:55.019Z,996.74
2019-05-23T07:35:55.118Z,996.70
2019-05-23T07:36:55.211Z,996.72
2019-05-23T07:37:55.326Z,996.70
2019-05-23T07:38:55.473Z,996.70
2019-05-23T07:39:55.501Z,996.67
2019-05-23T07:40:55.606Z,996.67
2019-05-23T07:41:55.699Z,996.65
2019-05-23T07:42:55.793Z,996.65
2019-05-23T07:43:55.890Z,996.66
2019-05-23T07:44:55.988Z,996.66
2019-05-23T07:45:56.086Z,996.65
2019-05-23T07:46:56.171Z,996.67
2019-05-23T07:47:56.273Z,996.65
2019-05-23T07:48:56.382Z,996.67
2019-05-23T07:49:56.460Z,996.64
2019-05-23T07:50:56.562Z,996.68
2019-05-23T07:51:56.655Z,996.67
2019-05-23T07:52:56.761Z,996.70
2019-05-23T07:53:56.845Z,996.69
2019-05-23T07:54:56.941Z,996.68
2019-05-23T07:55:57.036Z,996.71
2019-05-23T07:56:57.134Z,996.67
2019-05-23T07:57:57.230Z,996.69
2019-05-23T07:58:57.325Z,996.70
2019-05-23T07:59:57.424Z,996.68
2019-05-23T08:00:57.766Z,996.74
2019-05-23T08:01:58.431Z,996.70
2019-05-23T08:02:57.732Z,996.72
2019-05-23T08:03:57.832Z,996.71
2019-05-23T08:04:57.927Z,996.68
2019-05-23T08:05:58.025Z,996.72
2019-05-23T08:06:58.122Z,996.68
2019-05-23T08:07:58.285Z,996.67
2019-05-23T08:08:58.326Z,996.73
2019-05-23T08:09:58.423Z,996.67
2019-05-23T08:10:58.520Z,996.63
2019-05-23T08:11:58.617Z,996.62
2019-05-23T08:12:58.729Z,996.59
2019-05-23T08:13:58.814Z,996.57
2019-05-23T08:14:58.899Z,996.59
2019-05-23T08:15:59.003Z,996.54
2019-05-23T08:16:59.092Z,996.55
2019-05-23T08:17:59.211Z,996.59
2019-05-23T08:18:59.290Z,996.54
2019-05-23T08:19:59.388Z,996.55
2019-05-23T08:20:59.486Z,996.54
2019-05-23T08:21:59.585Z,996.55
2019-05-23T08:22:59.682Z,996.50
2019-05-23T08:23:59.798Z,996.51
2019-05-23T08:24:59.877Z,996.50
2019-05-23T08:25:59.973Z,996.55
2019-05-23T08:27:00.068Z,996.48
2019-05-23T08:28:00.169Z,996.49
2019-05-23T08:29:24.256Z,996.50
2019-05-23T08:30:02.394Z,996.51
2019-05-23T08:31:00.459Z,996.48
2019-05-23T08:32:00.568Z,996.47
2019-05-23T08:33:00.655Z,996.48
2019-05-23T08:34:00.751Z,996.45
2019-05-23T08:35:00.839Z,996.47
2019-05-23T08:36:00.935Z,996.45
2019-05-23T08:37:01.031Z,996.47
2019-05-23T08:38:01.136Z,996.45
2019-05-23T08:39:01.228Z,996.47
2019-05-23T08:40:01.490Z,996.45
2019-05-23T08:41:01.456Z,996.43
2019-05-23T08:42:01.541Z,996.38
2019-05-23T08:43:01.646Z,996.40
2019-05-23T08:44:01.743Z,996.41
2019-05-23T08:45:01.849Z,996.40
2019-05-23T08:46:01.937Z,996.33
2019-05-23T08:47:02.098Z,996.34
2019-05-23T08:48:02.134Z,996.33
2019-05-23T08:49:02.232Z,996.33
2019-05-23T08:50:02.330Z,996.31
2019-05-23T08:51:02.449Z,996.29
2019-05-23T08:52:02.503Z,996.28
2019-05-23T08:53:02.600Z,996.26
2019-05-23T08:54:02.756Z,996.26
2019-05-23T08:55:02.872Z,996.30
2019-05-23T08:56:03.617Z,996.25
2019-05-23T08:57:03.066Z,996.24
2019-05-23T08:58:03.142Z,996.24
2019-05-23T08:59:03.239Z,996.22
2019-05-23T09:00:03.333Z,996.22
2019-05-23T09:01:03.431Z,996.23
2019-05-23T09:02:03.529Z,996.24
2019-05-23T09:03:03.626Z,996.22
2019-05-23T09:04:03.722Z,996.20
2019-05-23T09:05:06.306Z,996.15
2019-05-23T09:06:03.914Z,996.20
2019-05-23T09:07:04.014Z,996.19
2019-05-23T09:08:04.112Z,996.18
2019-05-23T09:09:21.052Z,996.08
2019-05-23T09:10:04.325Z,996.10
2019-05-23T09:11:04.424Z,996.06
2019-05-23T09:12:04.522Z,996.05
2019-05-23T09:13:04.621Z,996.03
2019-05-23T09:14:04.720Z,996.03
2019-05-23T09:15:08.903Z,996.04
2019-05-23T09:16:04.973Z,996.10
2019-05-23T09:17:05.038Z,996.05
2019-05-23T09:18:05.136Z,996.03
2019-05-23T09:19:05.235Z,996.00
2019-05-23T09:20:05.368Z,996.02
2019-05-23T09:21:05.443Z,995.98
2019-05-23T09:22:05.548Z,995.97
2019-05-23T09:23:05.630Z,996.00
2019-05-23T09:24:05.746Z,996.02
2019-05-23T09:25:05.830Z,995.98
2019-05-23T09:26:05.933Z,995.98
2019-05-23T09:27:06.024Z,996.03
2019-05-23T09:28:06.134Z,996.02
2019-05-23T09:29:06.219Z,995.99
2019-05-23T09:30:06.321Z,996.02
2019-05-23T09:31:06.416Z,995.98
2019-05-23T09:32:06.523Z,996.03
2019-05-23T09:33:06.615Z,996.00
2019-05-23T09:34:06.715Z,995.99
2019-05-23T09:35:20.508Z,995.99
2019-05-23T09:36:06.931Z,995.98
2019-05-23T09:37:07.022Z,995.94
2019-05-23T09:38:07.129Z,995.94
2019-05-23T09:39:07.219Z,995.96
2019-05-23T09:40:07.316Z,995.93
2019-05-23T09:41:07.425Z,995.95
2019-05-23T09:42:07.518Z,996.00
2019-05-23T09:43:07.683Z,995.98
2019-05-23T09:44:07.742Z,996.01
2019-05-23T09:45:07.869Z,995.96
2019-05-23T09:46:07.966Z,995.95
2019-05-23T09:47:08.049Z,996.01
2019-05-23T09:48:08.152Z,995.99
2019-05-23T09:49:11.102Z,995.99
2019-05-23T09:50:08.356Z,995.94
2019-05-23T09:51:08.449Z,995.97
2019-05-23T09:52:09.147Z,995.98
2019-05-23T09:53:08.651Z,995.93
2019-05-23T09:54:08.749Z,995.93
2019-05-23T09:55:08.848Z,996.02
2019-05-23T09:56:08.987Z,995.98
2019-05-23T09:57:09.074Z,995.90
2019-05-23T09:58:09.162Z,995.94
2019-05-23T09:59:09.254Z,995.90
2019-05-23T10:00:09.384Z,995.88
2019-05-23T10:01:09.462Z,995.87
2019-05-23T10:02:09.558Z,995.90
2019-05-23T10:03:09.671Z,995.89
2019-05-23T10:04:09.783Z,995.88
2019-05-23T10:05:09.898Z,995.91
2019-05-23T10:06:10.002Z,995.97
2019-05-23T10:07:10.100Z,995.94
2019-05-23T10:08:10.200Z,995.96
2019-05-23T10:09:10.302Z,995.97
2019-05-23T10:10:10.401Z,995.95
2019-05-23T10:11:10.504Z,995.92
2019-05-23T10:12:10.601Z,995.94
2019-05-23T10:13:10.700Z,995.98
2019-05-23T10:14:10.806Z,995.99
2019-05-23T10:15:10.901Z,995.94
2019-05-23T10:16:11.011Z,995.88
2019-05-23T10:17:11.103Z,995.95
2019-05-23T10:18:11.257Z,995.89
2019-05-23T10:19:11.330Z,995.90
2019-05-23T10:20:11.413Z,995.87
2019-05-23T10:21:11.519Z,995.87
2019-05-23T10:22:11.616Z,995.86
2019-05-23T10:23:11.721Z,995.85
2019-05-23T10:24:11.900Z,995.86
2019-05-23T10:25:11.916Z,995.80
2019-05-23T10:26:12.026Z,995.78
2019-05-23T10:27:12.116Z,995.76
2019-05-23T10:28:12.253Z,995.75
2019-05-23T10:29:12.354Z,995.75
2019-05-23T10:30:12.461Z,995.76
2019-05-23T10:31:12.574Z,995.74
2019-05-23T10:32:12.665Z,995.74
2019-05-23T10:33:13.534Z,995.75
2019-05-23T10:34:12.851Z,995.79
2019-05-23T10:35:12.955Z,995.78
2019-05-23T10:36:13.054Z,995.75
2019-05-23T10:37:13.154Z,995.78
2019-05-23T10:38:13.264Z,995.72
2019-05-23T10:39:13.360Z,995.66
2019-05-23T10:40:13.460Z,995.62
2019-05-23T10:41:13.561Z,995.61
2019-05-23T10:42:13.662Z,995.59
2019-05-23T10:43:13.762Z,995.61
2019-05-23T10:44:13.863Z,995.61
2019-05-23T10:45:13.978Z,995.56
2019-05-23T10:46:14.073Z,995.59
2019-05-23T10:47:14.175Z,995.59
2019-05-23T10:48:14.273Z,995.60
2019-05-23T10:49:14.375Z,995.59
2019-05-23T10:50:14.479Z,995.53
2019-05-23T10:51:14.581Z,995.48
2019-05-23T10:52:14.680Z,995.52
2019-05-23T10:53:14.779Z,995.47
2019-05-23T10:54:14.878Z,995.52
2019-05-23T10:55:14.983Z,995.51
2019-05-23T10:56:20.053Z,995.45
2019-05-23T10:57:15.186Z,995.46
2019-05-23T10:58:15.285Z,995.43
2019-05-23T10:59:15.401Z,995.39
2019-05-23T11:00:15.491Z,995.45
2019-05-23T11:01:15.592Z,995.40
2019-05-23T11:02:15.692Z,995.47
2019-05-23T11:03:15.792Z,995.46
2019-05-23T11:04:15.900Z,995.49
2019-05-23T11:05:15.997Z,995.45
2019-05-23T11:06:17.032Z,995.40
2019-05-23T11:07:16.198Z,995.40
2019-05-23T11:08:16.305Z,995.36
2019-05-23T11:09:16.402Z,995.40
2019-05-23T11:10:16.503Z,995.39
2019-05-23T11:11:16.586Z,995.37
2019-05-23T11:12:16.686Z,995.35
2019-05-23T11:13:16.788Z,995.33
2019-05-23T11:14:16.914Z,995.33
2019-05-23T11:15:17.016Z,995.29
2019-05-23T11:16:17.184Z,995.28
2019-05-23T11:17:17.214Z,995.28
2019-05-23T11:18:17.320Z,995.25
2019-05-23T11:19:17.422Z,995.24
2019-05-23T11:20:17.525Z,995.21
2019-05-23T11:21:17.627Z,995.23
2019-05-23T11:22:17.737Z,995.21
2019-05-23T11:23:17.837Z,995.16
2019-05-23T11:24:17.933Z,995.17
2019-05-23T11:25:18.032Z,995.16
2019-05-23T11:26:18.140Z,995.14
2019-05-23T11:27:18.244Z,995.16
2019-05-23T11:28:18.343Z,995.26
2019-05-23T11:29:18.481Z,995.24
2019-05-23T11:30:18.543Z,995.22
2019-05-23T11:31:18.738Z,995.19
2019-05-23T11:32:20.150Z,995.14
2019-05-23T11:33:18.863Z,995.15
2019-05-23T11:34:19.052Z,995.13
2019-05-23T11:35:19.092Z,995.10
2019-05-23T11:36:33.678Z,995.14
2019-05-23T11:37:19.289Z,995.09
2019-05-23T11:38:19.391Z,995.06
2019-05-23T11:39:19.490Z,995.07
2019-05-23T11:40:19.599Z,995.08
2019-05-23T11:41:19.698Z,995.06
2019-05-23T11:42:19.794Z,995.07
2019-05-23T11:43:19.893Z,995.03
2019-05-23T11:44:19.989Z,995.01
2019-05-23T11:45:20.093Z,994.98
2019-05-23T11:46:20.201Z,994.99
2019-05-23T11:47:20.294Z,994.95
2019-05-23T11:48:20.396Z,994.91
2019-05-23T11:49:20.499Z,994.92
2019-05-23T11:50:20.598Z,994.93
2019-05-23T11:51:24.554Z,994.93
2019-05-23T11:52:20.807Z,994.92
2019-05-23T11:53:20.911Z,994.90
2019-05-23T11:54:21.013Z,994.88
2019-05-23T11:55:21.121Z,994.89
2019-05-23T11:56:21.216Z,994.91
2019-05-23T11:57:21.318Z,994.93
2019-05-23T11:58:21.420Z,994.92
2019-05-23T11:59:21.522Z,994.88
2019-05-23T12:00:21.647Z,994.84
2019-05-23T12:01:21.718Z,994.85
2019-05-23T12:02:21.820Z,994.84
2019-05-23T12:03:21.949Z,994.83
2019-05-23T12:04:22.052Z,994.83
2019-05-23T12:05:22.133Z,994.82
2019-05-23T12:06:25.794Z,994.78
2019-05-23T12:07:22.338Z,994.80
2019-05-23T12:08:22.446Z,994.79
2019-05-23T12:09:22.537Z,994.77
2019-05-23T12:10:22.854Z,994.78
2019-05-23T12:11:22.757Z,994.80
2019-05-23T12:12:22.855Z,994.81
2019-05-23T12:13:22.956Z,994.70
2019-05-23T12:14:23.058Z,994.75
2019-05-23T12:15:23.164Z,994.76
2019-05-23T12:16:23.264Z,994.70
2019-05-23T12:17:23.362Z,994.75
2019-05-23T12:18:23.457Z,994.72
2019-05-23T12:19:23.622Z,994.71
2019-05-23T12:20:23.660Z,994.75
2019-05-23T12:21:23.762Z,994.69
2019-05-23T12:22:23.860Z,994.69
2019-05-23T12:23:23.958Z,994.71
2019-05-23T12:24:24.058Z,994.68
2019-05-23T12:25:24.160Z,994.70
2019-05-23T12:26:24.258Z,994.69
2019-05-23T12:27:24.353Z,994.69
2019-05-23T12:28:24.456Z,994.73
2019-05-23T12:29:24.564Z,994.68